createdAt,value
2022-08-05T00:01:00.943Z,22.34
2022-08-05T00:03:50.706Z,22.35
2022-08-05T00:06:29.092Z,22.36
2022-08-05T00:09:04.090Z,22.29
2022-08-05T00:11:49.220Z,22.25
2022-08-05T00:14:29.002Z,22.23
2022-08-05T00:17:01.728Z,22.22
2022-08-05T00:19:45.516Z,22.19
2022-08-05T00:22:26.190Z,22.14
2022-08-05T00:24:56.366Z,22.11
2022-08-05T00:27:35.939Z,22.12
2022-08-05T00:30:11.578Z,22.05
2022-08-05T00:32:42.319Z,22.01
2022-08-05T00:35:13.216Z,22.01
2022-08-05T00:37:53.603Z,21.99
2022-08-05T00:40:29.055Z,21.99
2022-08-05T00:43:02.083Z,21.94
2022-08-05T00:45:38.501Z,21.91
2022-08-05T00:48:13.971Z,21.91
2022-08-05T00:50:46.580Z,22.03
2022-08-05T00:54:00.277Z,22.08
2022-08-05T00:56:12.130Z,22.17
2022-08-05T00:58:42.608Z,22.21
2022-08-05T01:01:15.955Z,22.11
2022-08-05T01:04:13.770Z,22.08
2022-08-05T01:06:48.610Z,22.20
2022-08-05T01:09:21.988Z,22.21
2022-08-05T01:14:48.042Z,22.10
2022-08-05T01:17:25.715Z,22.08
2022-08-05T01:20:04.962Z,22.03
2022-08-05T01:22:48.757Z,22.00
2022-08-05T01:25:52.338Z,22.08
2022-08-05T01:28:31.004Z,22.14
2022-08-05T01:31:08.001Z,22.02
2022-08-05T01:33:43.276Z,21.99
2022-08-05T01:36:28.271Z,21.94
2022-08-05T01:39:03.639Z,21.95
2022-08-05T01:41:38.156Z,21.95
2022-08-05T01:44:18.464Z,21.91
2022-08-05T01:46:52.194Z,21.83
2022-08-05T01:49:26.583Z,21.81
2022-08-05T01:52:19.076Z,21.71
2022-08-05T01:54:54.322Z,21.63
2022-08-05T01:58:11.959Z,21.54
2022-08-05T02:00:32.513Z,21.36
2022-08-05T02:03:24.054Z,21.29
2022-08-05T02:05:59.882Z,21.16
2022-08-05T02:08:31.793Z,21.03
2022-08-05T02:11:16.115Z,20.88
2022-08-05T02:13:59.275Z,20.63
2022-08-05T02:16:37.651Z,20.67
2022-08-05T02:19:16.981Z,20.68
2022-08-05T02:21:55.571Z,20.68
2022-08-05T02:24:30.626Z,20.73
2022-08-05T02:27:10.104Z,20.65
2022-08-05T02:29:59.533Z,20.56
2022-08-05T02:32:35.959Z,20.55
2022-08-05T02:35:22.062Z,20.43
2022-08-05T02:38:02.329Z,20.35
2022-08-05T02:40:34.803Z,20.33
2022-08-05T02:43:07.350Z,20.21
2022-08-05T02:45:52.977Z,20.05
2022-08-05T02:48:34.317Z,20.17
2022-08-05T02:51:05.803Z,20.19
2022-08-05T02:53:39.333Z,20.12
2022-08-05T02:56:16.074Z,20.01
2022-08-05T02:58:51.556Z,19.95
2022-08-05T03:01:27.152Z,19.97
2022-08-05T03:04:14.183Z,19.93
2022-08-05T03:06:57.159Z,19.94
2022-08-05T03:09:37.648Z,19.91
2022-08-05T03:12:10.294Z,19.79
2022-08-05T03:14:46.141Z,19.67
2022-08-05T03:17:20.154Z,19.52
2022-08-05T03:19:54.639Z,19.47
2022-08-05T03:22:32.129Z,19.40
2022-08-05T03:25:11.782Z,19.38
2022-08-05T03:27:59.617Z,19.30
2022-08-05T03:30:34.241Z,19.30
2022-08-05T03:33:06.117Z,19.24
2022-08-05T03:35:41.101Z,19.18
2022-08-05T03:38:15.067Z,19.18
2022-08-05T03:40:47.284Z,19.16
2022-08-05T03:44:09.598Z,19.09
2022-08-05T03:46:11.131Z,19.16
2022-08-05T03:48:45.236Z,19.15
2022-08-05T03:52:36.468Z,19.14
2022-08-05T03:55:51.848Z,19.19
2022-08-05T03:57:16.531Z,19.13
2022-08-05T04:00:01.529Z,19.12
2022-08-05T04:02:39.140Z,19.21
2022-08-05T04:05:17.421Z,19.27
2022-08-05T04:07:57.706Z,19.28
2022-08-05T04:10:37.591Z,19.24
2022-08-05T04:13:09.389Z,19.26
2022-08-05T04:16:03.114Z,19.35
2022-08-05T04:18:34.539Z,19.29
2022-08-05T04:21:07.270Z,19.36
2022-08-05T04:24:04.738Z,19.37
2022-08-05T04:26:35.097Z,19.48
2022-08-05T04:29:07.121Z,19.50
2022-08-05T04:31:38.556Z,19.60
2022-08-05T04:34:31.151Z,19.69
2022-08-05T04:36:59.885Z,19.78
2022-08-05T04:39:35.280Z,19.93
2022-08-05T04:42:06.699Z,20.04
2022-08-05T04:44:36.835Z,20.17
2022-08-05T04:47:10.452Z,20.31
2022-08-05T04:50:01.958Z,20.48
2022-08-05T04:52:34.441Z,20.59
2022-08-05T04:55:14.549Z,20.79
2022-08-05T04:57:51.581Z,20.96
2022-08-05T05:00:24.487Z,21.11
2022-08-05T05:02:54.955Z,21.25
2022-08-05T05:05:28.301Z,21.42
2022-08-05T05:08:03.003Z,21.56
2022-08-05T05:10:42.479Z,21.76
2022-08-05T05:13:26.234Z,21.96
2022-08-05T05:16:07.076Z,22.18
2022-08-05T05:18:37.564Z,22.32
2022-08-05T05:21:08.446Z,22.47
2022-08-05T05:24:03.721Z,22.65
2022-08-05T05:26:33.169Z,22.92
2022-08-05T05:29:14.364Z,23.10
2022-08-05T05:31:46.543Z,23.29
2022-08-05T05:34:21.168Z,23.45
2022-08-05T05:36:54.594Z,23.69
2022-08-05T05:39:25.053Z,23.87
2022-08-05T05:42:05.721Z,24.17
2022-08-05T05:44:42.947Z,24.43
2022-08-05T05:47:21.998Z,24.70
2022-08-05T05:49:56.877Z,24.89
2022-08-05T05:52:37.986Z,25.19
2022-08-05T05:55:13.903Z,25.46
2022-08-05T05:57:52.822Z,25.61
2022-08-05T06:00:27.771Z,25.76
2022-08-05T06:03:40.672Z,25.92
2022-08-05T06:05:56.316Z,26.16
2022-08-05T06:08:32.685Z,26.16
2022-08-05T06:11:04.042Z,26.27
2022-08-05T06:13:40.888Z,26.13
2022-08-05T06:16:28.194Z,26.14
2022-08-05T06:19:02.057Z,26.34
2022-08-05T06:21:37.437Z,26.48
2022-08-05T06:24:11.211Z,26.44
2022-08-05T06:26:51.492Z,26.64
2022-08-05T06:29:46.389Z,26.82
2022-08-05T06:32:26.434Z,26.87
2022-08-05T06:35:05.795Z,27.25
2022-08-05T06:37:56.252Z,27.27
2022-08-05T06:40:31.140Z,27.31
2022-08-05T06:43:03.371Z,27.22
2022-08-05T06:45:44.753Z,27.50
2022-08-05T06:48:50.113Z,27.80
2022-08-05T06:51:23.877Z,27.99
2022-08-05T06:53:59.530Z,28.42
2022-08-05T06:56:34.826Z,28.60
2022-08-05T06:59:08.361Z,29.07
2022-08-05T07:01:43.395Z,29.24
2022-08-05T07:04:16.472Z,29.36
2022-08-05T07:06:50.390Z,29.58
2022-08-05T07:09:20.880Z,29.55
2022-08-05T07:11:55.969Z,29.52
2022-08-05T07:14:43.179Z,29.60
2022-08-05T07:21:04.854Z,30.11
2022-08-05T07:23:36.304Z,30.43
2022-08-05T07:26:22.766Z,30.52
2022-08-05T07:28:55.590Z,30.89
2022-08-05T07:31:40.939Z,30.83
2022-08-05T07:34:28.689Z,31.30
2022-08-05T07:37:02.085Z,31.28
2022-08-05T07:40:26.240Z,31.34
2022-08-05T07:42:23.788Z,31.53
2022-08-05T07:45:04.234Z,31.53
2022-08-05T07:47:42.200Z,31.76
2022-08-05T07:50:16.644Z,31.72
2022-08-05T07:52:50.378Z,31.94
2022-08-05T07:56:05.232Z,31.97
2022-08-05T07:58:17.807Z,32.05
2022-08-05T08:01:06.168Z,32.30
2022-08-05T08:03:45.083Z,32.49
2022-08-05T08:06:16.151Z,32.50
2022-08-05T08:08:49.270Z,32.45
2022-08-05T08:11:19.808Z,32.62
2022-08-05T08:14:00.688Z,32.85
2022-08-05T08:16:35.143Z,33.08
2022-08-05T08:20:44.401Z,33.17
2022-08-05T08:22:11.951Z,33.08
2022-08-05T08:24:52.875Z,33.07
2022-08-05T08:27:23.666Z,32.96
2022-08-05T08:30:30.212Z,32.81
2022-08-05T08:33:08.091Z,33.17
2022-08-05T08:35:41.256Z,32.84
2022-08-05T08:38:32.287Z,33.26
2022-08-05T08:41:13.292Z,33.50
2022-08-05T08:45:19.920Z,33.65
2022-08-05T08:46:37.936Z,33.82
2022-08-05T08:50:23.111Z,33.98
2022-08-05T08:52:13.133Z,33.68
2022-08-05T08:54:47.891Z,33.38
2022-08-05T08:57:22.583Z,33.28
2022-08-05T08:59:53.261Z,33.97
2022-08-05T09:02:27.396Z,34.04
2022-08-05T09:05:17.559Z,34.07
2022-08-05T09:07:58.027Z,33.93
2022-08-05T09:10:30.293Z,34.18
2022-08-05T09:13:04.709Z,34.52
2022-08-05T09:15:37.080Z,33.93
2022-08-05T09:18:13.299Z,33.76
2022-08-05T09:20:44.856Z,34.20
2022-08-05T09:23:19.220Z,34.07
2022-08-05T09:26:03.156Z,34.34
2022-08-05T09:28:38.627Z,34.01
2022-08-05T09:31:43.824Z,34.63
2022-08-05T09:34:05.292Z,34.72
2022-08-05T09:36:45.931Z,34.66
2022-08-05T09:39:45.742Z,34.77
2022-08-05T09:42:24.417Z,34.70
2022-08-05T09:46:04.630Z,34.73
2022-08-05T09:48:01.808Z,34.71
2022-08-05T09:50:44.579Z,35.11
2022-08-05T09:53:25.887Z,34.83
2022-08-05T09:56:13.078Z,35.21
2022-08-05T09:58:44.030Z,35.01
2022-08-05T10:01:32.395Z,34.79
2022-08-05T10:04:10.290Z,34.27
2022-08-05T10:06:49.933Z,34.74
2022-08-05T10:09:27.837Z,35.43
2022-08-05T10:12:30.120Z,35.55
2022-08-05T10:15:20.603Z,35.73
2022-08-05T10:18:11.914Z,36.03
2022-08-05T10:20:47.938Z,35.64
2022-08-05T10:23:34.602Z,35.80
2022-08-05T10:26:14.898Z,36.12
2022-08-05T10:28:46.835Z,36.06
2022-08-05T10:32:52.338Z,35.48
2022-08-05T10:34:12.816Z,35.50
2022-08-05T10:36:45.090Z,35.91
2022-08-05T10:39:25.217Z,35.91
2022-08-05T10:42:18.407Z,35.98
2022-08-05T10:44:50.239Z,35.45
2022-08-05T10:47:26.806Z,35.90
2022-08-05T10:50:20.533Z,35.33
2022-08-05T10:53:04.088Z,35.54
2022-08-05T10:56:03.718Z,36.27
2022-08-05T10:58:47.903Z,36.64
2022-08-05T11:01:28.037Z,36.52
2022-08-05T11:04:10.550Z,36.68
2022-08-05T11:07:12.109Z,36.58
2022-08-05T11:09:47.427Z,36.39
2022-08-05T11:12:50.471Z,36.47
2022-08-05T11:16:00.192Z,36.62
2022-08-05T11:18:34.285Z,37.11
2022-08-05T11:21:12.008Z,36.97
2022-08-05T11:24:04.264Z,36.61
2022-08-05T11:26:49.625Z,36.08
2022-08-05T11:29:38.237Z,35.82
2022-08-05T11:32:27.844Z,36.75
2022-08-05T11:34:59.706Z,37.12
2022-08-05T11:38:26.768Z,37.39
2022-08-05T11:41:34.226Z,36.53
2022-08-05T11:44:07.567Z,36.13
2022-08-05T11:47:09.829Z,36.72
2022-08-05T11:49:34.110Z,36.42
2022-08-05T11:52:08.709Z,35.96
2022-08-05T11:54:43.531Z,36.06
2022-08-05T11:57:25.195Z,35.48
2022-08-05T11:59:56.687Z,35.94
2022-08-05T12:02:32.970Z,36.11
2022-08-05T12:05:07.360Z,36.63
2022-08-05T12:08:09.216Z,35.95
2022-08-05T12:10:45.000Z,36.30
2022-08-05T12:13:48.422Z,36.47
2022-08-05T12:16:14.974Z,36.68
2022-08-05T12:18:49.086Z,36.16
2022-08-05T12:21:26.870Z,36.56
2022-08-05T12:24:07.016Z,36.47
2022-08-05T12:26:39.149Z,36.40
2022-08-05T12:29:16.126Z,36.47
2022-08-05T12:31:53.227Z,36.16
2022-08-05T12:34:28.608Z,36.53
2022-08-05T12:37:00.837Z,36.38
2022-08-05T12:39:38.743Z,36.67
2022-08-05T12:42:14.854Z,36.81
2022-08-05T12:44:48.910Z,36.55
2022-08-05T12:47:30.707Z,36.71
2022-08-05T12:50:05.981Z,36.88
2022-08-05T12:52:41.661Z,36.59
2022-08-05T12:55:26.630Z,36.52
2022-08-05T12:58:49.310Z,36.52
2022-08-05T13:01:59.711Z,36.46
2022-08-05T13:03:48.637Z,36.88
2022-08-05T13:06:20.006Z,36.79
2022-08-05T13:08:53.093Z,36.95
2022-08-05T13:12:02.767Z,36.45
2022-08-05T13:14:24.762Z,36.41
2022-08-05T13:17:12.279Z,36.56
2022-08-05T13:19:52.768Z,36.85
2022-08-05T13:22:30.013Z,36.93
2022-08-05T13:25:19.179Z,37.01
2022-08-05T13:27:55.114Z,36.98
2022-08-05T13:30:34.285Z,36.68
2022-08-05T13:33:14.169Z,36.16
2022-08-05T13:35:51.739Z,36.57
2022-08-05T13:38:30.448Z,36.57
2022-08-05T13:41:01.875Z,36.49
2022-08-05T13:43:45.890Z,36.47
2022-08-05T13:46:38.005Z,36.83
2022-08-05T13:49:17.392Z,36.70
2022-08-05T13:51:48.058Z,36.46
2022-08-05T13:54:25.186Z,36.38
2022-08-05T13:56:56.431Z,35.91
2022-08-05T13:59:30.711Z,36.11
2022-08-05T14:02:02.097Z,35.95
2022-08-05T14:04:50.846Z,36.20
2022-08-05T14:07:26.398Z,36.03
2022-08-05T14:10:18.687Z,35.83
2022-08-05T14:12:58.439Z,36.08
2022-08-05T14:16:06.816Z,36.25
2022-08-05T14:18:23.289Z,36.25
2022-08-05T14:20:57.189Z,36.50
2022-08-05T14:23:36.347Z,36.48
2022-08-05T14:26:06.933Z,36.42
2022-08-05T14:28:37.130Z,36.44
2022-08-05T14:32:02.436Z,36.75
2022-08-05T14:34:13.862Z,36.62
2022-08-05T14:36:48.685Z,36.31
2022-08-05T14:39:23.264Z,35.89
2022-08-05T14:42:19.092Z,36.11
2022-08-05T14:44:46.282Z,36.12
2022-08-05T14:47:16.143Z,35.91
2022-08-05T14:49:59.410Z,35.64
2022-08-05T14:52:52.060Z,35.59
2022-08-05T14:55:24.617Z,35.76
2022-08-05T14:57:56.464Z,35.72
2022-08-05T15:00:29.534Z,35.60
2022-08-05T15:02:59.851Z,35.61
2022-08-05T15:06:08.431Z,35.71
2022-08-05T15:08:58.525Z,35.73
2022-08-05T15:11:13.176Z,35.41
2022-08-05T15:13:46.042Z,35.45
2022-08-05T15:16:16.964Z,35.47
2022-08-05T15:18:47.756Z,35.36
2022-08-05T15:21:20.874Z,35.42
2022-08-05T15:23:54.059Z,35.23
2022-08-05T15:26:32.081Z,35.31
2022-08-05T15:29:02.761Z,35.33
2022-08-05T15:31:34.914Z,35.35
2022-08-05T15:34:31.248Z,35.45
2022-08-05T15:36:58.122Z,35.27
2022-08-05T15:41:01.028Z,35.04
2022-08-05T15:42:55.126Z,34.96
2022-08-05T15:45:37.112Z,34.87
2022-08-05T15:48:10.094Z,34.90
2022-08-05T15:50:45.712Z,34.89
2022-08-05T15:53:16.394Z,34.78
2022-08-05T15:56:01.832Z,34.71
2022-08-05T15:58:37.195Z,34.67
2022-08-05T16:01:16.223Z,34.61
2022-08-05T16:03:50.406Z,34.47
2022-08-05T16:06:23.257Z,34.45
2022-08-05T16:08:55.494Z,34.46
2022-08-05T16:11:39.889Z,34.51
2022-08-05T16:14:17.170Z,34.48
2022-08-05T16:16:49.924Z,34.40
2022-08-05T16:20:02.713Z,34.33
2022-08-05T16:22:11.014Z,34.30
2022-08-05T16:24:51.914Z,34.29
2022-08-05T16:27:47.269Z,34.19
2022-08-05T16:30:23.088Z,33.97
2022-08-05T16:32:53.804Z,33.93
2022-08-05T16:35:28.578Z,34.08
2022-08-05T16:38:15.487Z,34.06
2022-08-05T16:41:00.030Z,33.86
2022-08-05T16:43:35.764Z,33.75
2022-08-05T16:46:23.798Z,33.70
2022-08-05T16:48:55.544Z,33.67
2022-08-05T16:51:31.092Z,33.56
2022-08-05T16:54:16.027Z,33.39
2022-08-05T16:56:47.860Z,33.31
2022-08-05T16:59:25.107Z,33.22
2022-08-05T17:01:58.101Z,33.13
2022-08-05T17:04:31.141Z,33.04
2022-08-05T17:07:11.477Z,32.92
2022-08-05T17:09:58.163Z,32.84
2022-08-05T17:12:51.384Z,32.71
2022-08-05T17:15:29.522Z,32.64
2022-08-05T17:18:15.584Z,32.56
2022-08-05T17:20:46.989Z,32.44
2022-08-05T17:24:03.661Z,32.35
2022-08-05T17:26:07.688Z,32.19
2022-08-05T17:28:40.627Z,32.06
2022-08-05T17:31:24.597Z,31.95
2022-08-05T17:34:05.599Z,31.75
2022-08-05T17:36:40.702Z,31.49
2022-08-05T17:39:24.087Z,31.46
2022-08-05T17:42:17.844Z,31.23
2022-08-05T17:44:51.412Z,31.12
2022-08-05T17:47:24.541Z,31.01
2022-08-05T17:50:03.659Z,30.78
2022-08-05T17:52:53.109Z,30.60
2022-08-05T17:55:34.404Z,30.41
2022-08-05T17:58:14.609Z,30.21
2022-08-05T18:00:50.989Z,30.00
2022-08-05T18:03:58.407Z,29.92
2022-08-05T18:06:15.740Z,29.78
2022-08-05T18:08:52.559Z,29.62
2022-08-05T18:11:32.969Z,29.57
2022-08-05T18:14:07.530Z,29.53
2022-08-05T18:16:51.017Z,29.32
2022-08-05T18:19:26.023Z,29.34
2022-08-05T18:22:07.321Z,29.22
2022-08-05T18:24:42.520Z,29.10
2022-08-05T18:27:18.922Z,28.99
2022-08-05T18:29:54.588Z,28.81
2022-08-05T18:32:28.441Z,28.72
2022-08-05T18:35:02.671Z,28.57
2022-08-05T18:37:40.230Z,28.37
2022-08-05T18:40:31.065Z,28.33
2022-08-05T18:43:05.408Z,28.12
2022-08-05T18:45:41.214Z,28.02
2022-08-05T18:48:17.454Z,28.03
2022-08-05T18:52:05.558Z,27.96
2022-08-05T18:54:08.745Z,27.86
2022-08-05T18:56:39.285Z,27.80
2022-08-05T18:59:43.034Z,27.80
2022-08-05T19:02:00.737Z,27.69
2022-08-05T19:04:34.030Z,27.67
2022-08-05T19:07:29.876Z,27.56
2022-08-05T19:10:17.604Z,27.59
2022-08-05T19:12:51.406Z,27.47
2022-08-05T19:15:57.194Z,27.47
2022-08-05T19:18:20.718Z,27.28
2022-08-05T19:20:54.109Z,27.17
2022-08-05T19:24:07.534Z,27.18
2022-08-05T19:26:24.140Z,27.14
2022-08-05T19:28:55.825Z,27.14
2022-08-05T19:31:27.023Z,27.06
2022-08-05T19:34:04.148Z,26.91
2022-08-05T19:36:36.701Z,26.85
2022-08-05T19:39:09.845Z,26.82
2022-08-05T19:42:07.351Z,26.87
2022-08-05T19:44:40.228Z,26.73
2022-08-05T19:47:16.268Z,26.68
2022-08-05T19:49:48.180Z,26.62
2022-08-05T19:52:31.029Z,26.58
2022-08-05T19:55:06.941Z,26.26
2022-08-05T19:57:48.955Z,26.34
2022-08-05T20:00:30.660Z,26.39
2022-08-05T20:03:08.644Z,26.34
2022-08-05T20:05:49.905Z,26.31
2022-08-05T20:08:24.555Z,26.29
2022-08-05T20:10:58.120Z,26.09
2022-08-05T20:13:54.541Z,25.95
2022-08-05T20:16:19.413Z,26.00
2022-08-05T20:18:56.418Z,25.97
2022-08-05T20:21:27.929Z,25.96
2022-08-05T20:24:02.123Z,25.88
2022-08-05T20:26:35.670Z,25.85
2022-08-05T20:29:06.417Z,25.77
2022-08-05T20:31:58.272Z,25.76
2022-08-05T20:34:33.722Z,25.74
2022-08-05T20:37:04.554Z,25.74
2022-08-05T20:39:51.556Z,25.78
2022-08-05T20:42:25.131Z,25.77
2022-08-05T20:44:58.505Z,25.86
2022-08-05T20:47:32.749Z,25.84
2022-08-05T20:50:05.315Z,25.83
2022-08-05T20:52:38.956Z,25.81
2022-08-05T20:55:54.946Z,25.83
2022-08-05T20:58:05.183Z,25.84
2022-08-05T21:00:49.631Z,25.90
2022-08-05T21:03:24.899Z,25.92
2022-08-05T21:05:55.721Z,25.91
2022-08-05T21:08:41.530Z,25.83
2022-08-05T21:12:07.551Z,25.82
2022-08-05T21:14:05.950Z,25.76
2022-08-05T21:16:37.210Z,25.71
2022-08-05T21:19:07.665Z,25.65
2022-08-05T21:21:39.365Z,25.65
2022-08-05T21:24:15.342Z,25.62
2022-08-05T21:26:58.087Z,25.63
2022-08-05T21:29:32.582Z,25.75
2022-08-05T21:32:11.201Z,25.82
2022-08-05T21:35:08.496Z,25.69
2022-08-05T21:37:41.188Z,25.65
2022-08-05T21:40:14.237Z,25.65
2022-08-05T21:42:47.475Z,25.52
2022-08-05T21:45:24.929Z,25.41
2022-08-05T21:48:11.249Z,25.48
2022-08-05T21:50:53.050Z,25.49
2022-08-05T21:53:30.924Z,25.46
2022-08-05T21:56:16.315Z,25.42
2022-08-05T21:58:57.396Z,25.38
2022-08-05T22:01:35.510Z,25.30
2022-08-05T22:04:05.948Z,25.26
2022-08-05T22:06:50.294Z,25.43
2022-08-05T22:09:22.287Z,25.31
2022-08-05T22:11:52.493Z,25.30
2022-08-05T22:14:35.532Z,25.20
2022-08-05T22:17:10.528Z,25.11
2022-08-05T22:20:00.423Z,25.06
2022-08-05T22:22:31.260Z,24.98
2022-08-05T22:25:21.773Z,24.91
2022-08-05T22:28:10.310Z,24.86
2022-08-05T22:30:56.798Z,24.84
2022-08-05T22:33:55.413Z,24.92
2022-08-05T22:36:23.859Z,25.10
2022-08-05T22:38:54.984Z,25.11
2022-08-05T22:42:10.518Z,25.03
2022-08-05T22:44:18.981Z,25.08
2022-08-05T22:46:49.677Z,25.03
2022-08-05T22:50:18.158Z,25.03
2022-08-05T22:52:30.202Z,24.93
2022-08-05T22:55:04.363Z,24.77
2022-08-05T22:57:50.385Z,24.64
2022-08-05T23:00:22.724Z,24.56
2022-08-05T23:02:55.122Z,24.47
2022-08-05T23:05:28.225Z,24.42
2022-08-05T23:08:01.012Z,24.29
2022-08-05T23:10:31.466Z,24.21
2022-08-05T23:13:01.639Z,24.12
2022-08-05T23:15:34.824Z,24.08
2022-08-05T23:18:11.692Z,24.01
2022-08-05T23:20:49.669Z,23.90
2022-08-05T23:23:20.976Z,23.86
2022-08-05T23:25:59.328Z,23.73
2022-08-05T23:28:30.980Z,23.63
2022-08-05T23:31:17.100Z,23.55
2022-08-05T23:34:05.471Z,23.57
2022-08-05T23:36:44.189Z,23.64
2022-08-05T23:39:31.920Z,23.39
2022-08-05T23:42:03.872Z,23.31
2022-08-05T23:44:38.853Z,23.26
2022-08-05T23:47:15.630Z,23.22
2022-08-05T23:49:46.480Z,23.15
2022-08-05T23:52:36.074Z,23.15
2022-08-05T23:55:21.338Z,23.19
2022-08-05T23:57:52.825Z,23.18
